Time;durP1;ratioP1;P1;durP2;ratioP2;P2;SDS_P1;SDS_P2;PMS_P1;PMS_P2;Temp;Humidity;BMP_temperature;BMP_pressure;BME280_temperature;BME280_humidity;BME280_pressure;Samples;Min_cycle;Max_cycle;Signal;HPM_P1;HPM_P2
2022/01/31 00:01:54;;;;;;;13.00;3.33;;;7.50;79.10;;;;;;5032439;28;20071;-63
2022/01/31 00:04:19;;;;;;;10.82;2.83;;;7.50;79.10;;;;;;5044332;28;20029;-63
2022/01/31 00:06:48;;;;;;;14.20;3.10;;;7.50;79.00;;;;;;5033581;28;20029;-63
2022/01/31 00:09:16;;;;;;;12.10;3.50;;;7.50;79.10;;;;;;5031900;28;20095;-63
2022/01/31 00:11:45;;;;;;;14.52;3.50;;;7.50;79.40;;;;;;5050819;28;20392;-63
2022/01/31 00:14:26;;;;;;;18.77;3.75;;;7.50;79.60;;;;;;5051119;28;20033;-63
2022/01/31 00:16:51;;;;;;;10.60;3.40;;;7.60;79.40;;;;;;5052035;28;20392;-64
2022/01/31 00:19:17;;;;;;;19.63;4.13;;;7.60;79.40;;;;;;5046548;28;20060;-63
2022/01/31 00:21:42;;;;;;;14.45;4.05;;;7.60;79.70;;;;;;5034511;28;20040;-63
2022/01/31 00:24:08;;;;;;;9.57;3.72;;;7.60;79.60;;;;;;5035893;28;20032;-63
2022/01/31 00:26:34;;;;;;;16.38;3.85;;;7.60;79.70;;;;;;5031535;28;20428;-63
2022/01/31 00:28:59;;;;;;;14.30;3.75;;;7.60;79.80;;;;;;5032389;28;20021;-62
2022/01/31 00:31:24;;;;;;;21.08;3.80;;;7.60;80.00;;;;;;5031624;28;20032;-62
2022/01/31 00:33:50;;;;;;;12.95;3.20;;;7.60;80.10;;;;;;5040905;28;20025;-62
2022/01/31 00:36:15;;;;;;;13.77;3.40;;;7.50;80.10;;;;;;5032234;28;20087;-62
2022/01/31 00:38:41;;;;;;;12.73;3.45;;;7.50;80.40;;;;;;5038880;28;20519;-64
2022/01/31 00:41:06;;;;;;;21.05;3.67;;;7.50;80.60;;;;;;5043306;28;20101;-62
2022/01/31 00:43:35;;;;;;;18.92;3.33;;;7.50;80.70;;;;;;5030328;28;20480;-63
2022/01/31 00:46:03;;;;;;;12.45;3.65;;;7.50;81.00;;;;;;5037115;28;20068;-63
2022/01/31 00:48:34;;;;;;;17.23;3.30;;;7.50;81.30;;;;;;5045556;28;20052;-63
2022/01/31 00:50:59;;;;;;;15.02;3.42;;;7.50;81.80;;;;;;5050406;28;20460;-63
2022/01/31 00:53:25;;;;;;;17.77;3.88;;;7.50;82.10;;;;;;5047521;28;20032;-63
2022/01/31 00:55:50;;;;;;;16.23;3.22;;;7.40;82.40;;;;;;5032006;28;20041;-63
2022/01/31 00:58:16;;;;;;;16.92;3.45;;;7.40;83.00;;;;;;5034550;28;20037;-62
2022/01/31 01:00:41;;;;;;;19.10;4.68;;;7.40;83.20;;;;;;5051236;28;20049;-63
2022/01/31 01:03:07;;;;;;;16.20;3.92;;;7.40;83.40;;;;;;5047314;28;20036;-62
2022/01/31 01:05:32;;;;;;;21.83;3.85;;;7.40;83.60;;;;;;5032784;28;20114;-63
2022/01/31 01:07:58;;;;;;;18.20;4.22;;;7.30;83.90;;;;;;5033191;28;20029;-64
2022/01/31 01:10:23;;;;;;;17.30;4.43;;;7.30;84.10;;;;;;5051132;28;20021;-63
2022/01/31 01:12:49;;;;;;;18.48;4.53;;;7.30;84.60;;;;;;5037165;28;20025;-63
2022/01/31 01:15:15;;;;;;;17.83;3.97;;;7.20;85.60;;;;;;5031078;28;20025;-64
2022/01/31 01:17:42;;;;;;;13.85;4.07;;;7.20;86.20;;;;;;5030257;28;20095;-64
2022/01/31 01:20:09;;;;;;;21.92;5.50;;;7.10;87.00;;;;;;5032219;28;20639;-63
2022/01/31 01:22:35;;;;;;;22.83;4.40;;;7.10;87.60;;;;;;5042713;28;20037;-63
2022/01/31 01:25:04;;;;;;;20.77;4.50;;;7.10;88.00;;;;;;5049114;28;20078;-63
2022/01/31 01:27:29;;;;;;;15.27;4.50;;;7.00;88.70;;;;;;5046767;28;20033;-63
2022/01/31 01:29:56;;;;;;;23.10;4.20;;;7.10;88.70;;;;;;5035273;28;20035;-63
2022/01/31 01:32:23;;;;;;;16.42;3.60;;;7.00;88.70;;;;;;5050394;28;20373;-63
2022/01/31 01:34:48;;;;;;;23.10;4.68;;;7.00;89.00;;;;;;5048902;28;20040;-63
2022/01/31 01:37:14;;;;;;;17.50;4.28;;;7.00;89.00;;;;;;5050751;28;20128;-63
2022/01/31 01:39:40;;;;;;;13.77;4.13;;;7.00;89.10;;;;;;5039815;28;20033;-63
2022/01/31 01:42:07;;;;;;;19.73;3.95;;;7.00;89.30;;;;;;5032249;28;20029;-63
2022/01/31 01:44:45;;;;;;;20.70;4.90;;;7.00;89.30;;;;;;5035192;28;20033;-63
2022/01/31 01:47:11;;;;;;;17.38;3.92;;;7.10;89.40;;;;;;5032754;28;20083;-63
2022/01/31 01:49:36;;;;;;;19.02;4.25;;;7.10;89.60;;;;;;5046007;28;20044;-63
2022/01/31 01:52:03;;;;;;;16.77;3.72;;;7.10;89.70;;;;;;5047048;28;20029;-63
2022/01/31 01:54:29;;;;;;;14.85;4.65;;;7.10;89.60;;;;;;5043349;28;20033;-62
2022/01/31 01:56:54;;;;;;;16.75;3.92;;;7.10;89.50;;;;;;5030595;28;20028;-63
2022/01/31 01:59:20;;;;;;;17.98;4.28;;;7.10;89.50;;;;;;5043552;28;20067;-62
2022/01/31 02:01:45;;;;;;;15.90;4.88;;;7.10;89.40;;;;;;5031862;28;20108;-62
2022/01/31 02:04:11;;;;;;;19.05;4.25;;;7.20;89.40;;;;;;5031880;28;20121;-63
2022/01/31 02:06:37;;;;;;;19.98;4.57;;;7.20;89.30;;;;;;5030849;28;20026;-63
2022/01/31 02:09:03;;;;;;;23.73;4.60;;;7.10;89.10;;;;;;5041191;28;20052;-63
2022/01/31 02:11:28;;;;;;;24.92;6.22;;;7.20;89.20;;;;;;5049361;28;20032;-63
2022/01/31 02:13:54;;;;;;;23.83;6.38;;;7.20;89.00;;;;;;5049228;28;20029;-63
2022/01/31 02:16:19;;;;;;;20.92;5.00;;;7.20;88.90;;;;;;5050063;28;20501;-63
2022/01/31 02:18:49;;;;;;;18.17;4.30;;;7.20;88.90;;;;;;5042036;28;20033;-63
2022/01/31 02:21:16;;;;;;;16.02;3.85;;;7.20;88.80;;;;;;5041123;28;20060;-63
2022/01/31 02:23:42;;;;;;;25.88;5.20;;;7.20;88.60;;;;;;5034076;28;20021;-63
2022/01/31 02:26:08;;;;;;;21.42;4.10;;;7.20;88.50;;;;;;5034241;28;20132;-63
2022/01/31 02:28:38;;;;;;;16.25;4.93;;;7.10;88.30;;;;;;5038980;28;20108;-63
2022/01/31 02:31:05;;;;;;;19.38;4.13;;;7.10;88.40;;;;;;5054250;28;20064;-64
2022/01/31 02:33:31;;;;;;;14.73;4.35;;;7.10;88.30;;;;;;5051931;28;20029;-64
2022/01/31 02:35:59;;;;;;;25.42;4.70;;;7.10;88.20;;;;;;5035241;28;20036;-64
2022/01/31 02:38:25;;;;;;;16.25;4.32;;;7.10;88.00;;;;;;5050299;28;20041;-64
2022/01/31 02:40:51;;;;;;;21.02;3.80;;;7.10;87.90;;;;;;5045738;28;20075;-64
2022/01/31 02:43:24;;;;;;;15.68;4.15;;;7.10;88.00;;;;;;5047456;28;20029;-63
2022/01/31 02:45:50;;;;;;;18.23;4.40;;;7.10;87.90;;;;;;5053778;28;20472;-63
2022/01/31 02:48:19;;;;;;;21.23;5.25;;;7.10;87.80;;;;;;5052145;28;20492;-62
2022/01/31 02:50:45;;;;;;;19.27;4.05;;;7.10;87.70;;;;;;5053873;28;20036;-62
2022/01/31 02:53:13;;;;;;;16.20;3.60;;;7.10;87.50;;;;;;5037449;28;20017;-63
2022/01/31 02:55:42;;;;;;;18.90;4.90;;;7.10;87.60;;;;;;5049391;28;20032;-63
2022/01/31 02:58:08;;;;;;;17.75;4.05;;;7.10;87.30;;;;;;5034422;28;20503;-63
2022/01/31 03:00:35;;;;;;;19.25;4.03;;;7.10;87.20;;;;;;5050552;28;20044;-62
2022/01/31 03:03:00;;;;;;;15.27;3.58;;;7.10;87.20;;;;;;5053641;28;20029;-63
2022/01/31 03:05:26;;;;;;;15.65;5.03;;;7.00;87.20;;;;;;5051690;28;20029;-63
2022/01/31 03:07:51;;;;;;;15.68;4.35;;;7.00;87.10;;;;;;5053486;28;20029;-63
2022/01/31 03:10:17;;;;;;;16.35;3.33;;;7.10;87.20;;;;;;5043533;28;20021;-63
2022/01/31 03:12:42;;;;;;;23.38;3.78;;;7.00;87.10;;;;;;5033353;28;20037;-63
2022/01/31 03:15:08;;;;;;;17.35;4.75;;;7.10;87.10;;;;;;5040686;28;20029;-63
2022/01/31 03:17:34;;;;;;;13.38;3.65;;;7.00;86.90;;;;;;5038137;28;20036;-62
2022/01/31 03:20:00;;;;;;;20.30;4.18;;;7.00;86.90;;;;;;5051190;28;20032;-62
2022/01/31 03:22:25;;;;;;;20.85;4.32;;;7.10;86.90;;;;;;5051450;28;20032;-63
2022/01/31 03:24:51;;;;;;;20.95;4.30;;;7.10;86.90;;;;;;5050879;28;20029;-63
2022/01/31 03:27:16;;;;;;;16.45;3.38;;;7.10;86.90;;;;;;5052972;28;20025;-63
2022/01/31 03:29:42;;;;;;;15.90;4.22;;;7.10;86.90;;;;;;5045387;28;20033;-63
2022/01/31 03:32:08;;;;;;;18.35;4.07;;;7.00;86.70;;;;;;5032945;28;20049;-63
2022/01/31 03:34:33;;;;;;;24.40;4.93;;;7.00;86.70;;;;;;5050021;28;20022;-63
2022/01/31 03:36:59;;;;;;;14.60;3.63;;;7.10;86.80;;;;;;5037694;28;20394;-63
2022/01/31 03:39:25;;;;;;;21.40;4.15;;;7.10;86.70;;;;;;5037362;28;20040;-63
2022/01/31 03:41:50;;;;;;;19.80;4.13;;;7.10;86.50;;;;;;5034419;28;20108;-62
2022/01/31 03:44:16;;;;;;;20.08;4.30;;;7.10;86.50;;;;;;5039237;28;20043;-63
2022/01/31 03:46:41;;;;;;;23.00;5.53;;;7.10;86.50;;;;;;5041249;28;20484;-63
2022/01/31 03:49:07;;;;;;;16.65;3.80;;;7.10;86.60;;;;;;5038012;28;20106;-62
2022/01/31 03:51:32;;;;;;;14.05;4.32;;;7.10;86.50;;;;;;5041954;28;20044;-63
2022/01/31 03:53:58;;;;;;;23.38;4.22;;;7.10;86.50;;;;;;5037715;28;20052;-63
2022/01/31 03:56:23;;;;;;;20.85;3.70;;;7.10;86.40;;;;;;5052604;28;20025;-63
2022/01/31 03:58:49;;;;;;;18.80;3.72;;;7.10;86.40;;;;;;5050652;28;20033;-63
2022/01/31 04:01:14;;;;;;;18.10;4.50;;;7.10;86.30;;;;;;5051092;28;20044;-64
2022/01/31 04:03:40;;;;;;;22.80;4.18;;;7.10;86.30;;;;;;5050190;28;20041;-63
2022/01/31 04:06:05;;;;;;;21.98;4.53;;;7.10;86.20;;;;;;5052111;28;20043;-63
2022/01/31 04:08:31;;;;;;;17.60;4.75;;;7.10;86.20;;;;;;5049740;28;20029;-63
2022/01/31 04:10:56;;;;;;;23.08;4.93;;;7.10;86.10;;;;;;5034174;28;20040;-63
2022/01/31 04:13:22;;;;;;;23.67;4.30;;;7.10;86.20;;;;;;5050743;28;20021;-63
2022/01/31 04:15:47;;;;;;;20.05;4.65;;;7.10;86.20;;;;;;5052195;28;20021;-63
2022/01/31 04:18:14;;;;;;;19.73;4.78;;;7.10;86.20;;;;;;5035542;28;20041;-63
2022/01/31 04:20:39;;;;;;;19.73;4.43;;;7.10;86.20;;;;;;5049288;28;20021;-63
2022/01/31 04:23:12;;;;;;;16.98;4.13;;;7.10;86.10;;;;;;5038158;28;20025;-63
2022/01/31 04:28:25;;;;;;;20.85;4.22;;;7.10;86.10;;;;;;5035941;28;20523;-63
2022/01/31 04:30:58;;;;;;;18.55;3.90;;;7.10;86.00;;;;;;5037603;28;20061;-63
2022/01/31 04:33:25;;;;;;;23.90;4.32;;;7.00;85.90;;;;;;5031801;28;20025;-63
2022/01/31 04:35:51;;;;;;;23.50;4.60;;;7.00;86.10;;;;;;5036446;28;20491;-63
2022/01/31 04:38:17;;;;;;;16.17;4.03;;;7.00;86.00;;;;;;5050274;28;20127;-63
2022/01/31 04:40:43;;;;;;;15.82;3.95;;;7.00;86.10;;;;;;5036924;28;20424;-63
2022/01/31 04:43:09;;;;;;;27.15;4.32;;;7.00;86.20;;;;;;5021672;28;20020;-63
2022/01/31 04:45:35;;;;;;;20.42;4.68;;;7.00;86.30;;;;;;5049206;28;20016;-63
2022/01/31 04:48:00;;;;;;;22.73;4.82;;;6.90;86.30;;;;;;5044559;28;20025;-63
2022/01/31 04:50:26;;;;;;;19.75;5.13;;;6.90;86.40;;;;;;5042797;28;20037;-63
2022/01/31 04:52:51;;;;;;;18.08;4.65;;;6.90;86.40;;;;;;5044443;28;20094;-63
2022/01/31 04:55:17;;;;;;;23.45;5.90;;;6.90;86.50;;;;;;5047697;28;20040;-63
2022/01/31 04:57:42;;;;;;;25.55;5.28;;;6.90;86.50;;;;;;5051001;28;20541;-63
2022/01/31 05:00:09;;;;;;;21.15;5.28;;;6.90;86.50;;;;;;5046772;28;20049;-63
2022/01/31 05:02:36;;;;;;;20.05;4.72;;;6.90;86.50;;;;;;5030943;28;20033;-63
2022/01/31 05:05:03;;;;;;;22.27;4.75;;;6.90;86.50;;;;;;5043791;28;20029;-63
2022/01/31 05:07:29;;;;;;;21.50;5.00;;;6.90;86.50;;;;;;5031861;28;20148;-63
2022/01/31 05:09:54;;;;;;;20.92;4.50;;;6.90;86.50;;;;;;5042957;28;20100;-63
2022/01/31 05:12:20;;;;;;;17.45;4.53;;;6.90;86.50;;;;;;5049798;28;20499;-62
2022/01/31 05:14:46;;;;;;;21.38;4.55;;;6.80;86.50;;;;;;5022426;28;20025;-63
2022/01/31 05:17:11;;;;;;;22.42;5.13;;;6.90;86.50;;;;;;5050972;28;20048;-63
2022/01/31 05:19:37;;;;;;;22.92;5.50;;;6.90;86.40;;;;;;5049515;28;20114;-63
2022/01/31 05:22:03;;;;;;;23.88;4.85;;;6.90;86.50;;;;;;5051500;28;20048;-63
2022/01/31 05:24:29;;;;;;;27.77;4.82;;;6.90;86.50;;;;;;5045217;28;20033;-63
2022/01/31 05:26:55;;;;;;;16.30;4.63;;;6.80;86.50;;;;;;5051077;28;20031;-63
2022/01/31 05:29:21;;;;;;;21.90;4.97;;;6.90;86.50;;;;;;5043877;28;20026;-63
2022/01/31 05:31:48;;;;;;;19.38;3.90;;;6.90;86.60;;;;;;5030867;28;20473;-63
2022/01/31 05:34:14;;;;;;;19.65;4.68;;;6.90;86.50;;;;;;5037735;28;20622;-63
2022/01/31 05:36:40;;;;;;;24.27;4.88;;;6.80;86.60;;;;;;5050959;28;20056;-63
2022/01/31 05:39:06;;;;;;;19.25;3.90;;;6.80;86.60;;;;;;5048238;28;20064;-63
2022/01/31 05:41:31;;;;;;;19.45;4.40;;;6.90;86.70;;;;;;5041326;28;20029;-63
2022/01/31 05:43:57;;;;;;;22.08;4.30;;;6.90;86.70;;;;;;5044373;28;20043;-63
2022/01/31 05:46:22;;;;;;;18.85;4.35;;;6.80;86.70;;;;;;5031008;28;20177;-63
2022/01/31 05:48:48;;;;;;;22.27;3.95;;;6.80;86.80;;;;;;5039411;28;20036;-63
2022/01/31 05:51:17;;;;;;;18.05;4.65;;;6.80;86.90;;;;;;5055050;28;20029;-63
2022/01/31 05:53:44;;;;;;;21.70;4.22;;;6.80;86.90;;;;;;5051047;28;20104;-63
2022/01/31 05:56:11;;;;;;;16.35;4.43;;;6.70;87.00;;;;;;5054760;28;20108;-63
2022/01/31 05:58:36;;;;;;;18.85;3.97;;;6.80;87.10;;;;;;5051283;28;20111;-64
2022/01/31 06:01:02;;;;;;;20.77;5.00;;;6.80;87.10;;;;;;5054440;28;20443;-63
2022/01/31 06:03:28;;;;;;;21.15;5.22;;;6.70;87.10;;;;;;5051020;28;20037;-63
2022/01/31 06:05:53;;;;;;;18.95;4.28;;;6.70;87.10;;;;;;5021042;28;20017;-64
2022/01/31 06:08:19;;;;;;;31.77;4.00;;;6.70;87.10;;;;;;5053254;28;20476;-63
2022/01/31 06:10:46;;;;;;;18.88;4.63;;;6.70;87.00;;;;;;5039364;28;20071;-64
2022/01/31 06:13:11;;;;;;;18.05;4.20;;;6.70;87.00;;;;;;5054479;28;20033;-63
2022/01/31 06:15:37;;;;;;;17.25;3.95;;;6.70;87.00;;;;;;5034886;28;20021;-63
2022/01/31 06:18:03;;;;;;;20.92;4.32;;;6.70;86.90;;;;;;5034834;28;20045;-63
2022/01/31 06:20:29;;;;;;;22.23;4.50;;;6.70;87.00;;;;;;5044843;28;20389;-63
2022/01/31 06:22:54;;;;;;;17.75;4.22;;;6.60;87.00;;;;;;5038557;28;20016;-63
2022/01/31 06:25:20;;;;;;;21.52;4.93;;;6.60;87.10;;;;;;5052593;28;20029;-63
2022/01/31 06:27:46;;;;;;;19.08;3.95;;;6.60;87.00;;;;;;5052280;28;20037;-63
2022/01/31 06:30:12;;;;;;;24.60;4.40;;;6.60;87.10;;;;;;5052068;28;20452;-63
2022/01/31 06:32:38;;;;;;;24.85;5.07;;;6.60;87.10;;;;;;5051163;28;20075;-63
2022/01/31 06:35:05;;;;;;;22.85;6.35;;;6.50;87.20;;;;;;5041820;28;20021;-63
2022/01/31 06:37:31;;;;;;;26.73;5.00;;;6.50;87.20;;;;;;5053312;28;20095;-63
2022/01/31 06:39:56;;;;;;;23.05;5.60;;;6.50;87.20;;;;;;5045145;28;20041;-63
2022/01/31 06:42:21;;;;;;;20.20;4.63;;;6.50;87.20;;;;;;5034909;28;20104;-63
2022/01/31 06:44:47;;;;;;;22.42;4.72;;;6.50;87.20;;;;;;5034299;28;20029;-63
2022/01/31 06:47:12;;;;;;;25.10;6.07;;;6.50;87.20;;;;;;5034407;28;20040;-63
2022/01/31 06:49:38;;;;;;;29.08;5.00;;;6.40;87.30;;;;;;5043811;28;20035;-63
2022/01/31 06:52:05;;;;;;;20.33;5.20;;;6.40;87.30;;;;;;5039675;28;20082;-63
2022/01/31 06:54:30;;;;;;;21.85;4.28;;;6.40;87.30;;;;;;5034504;28;20026;-63
2022/01/31 06:56:57;;;;;;;16.45;3.92;;;6.40;87.20;;;;;;5033794;28;20024;-63
2022/01/31 06:59:23;;;;;;;21.67;4.80;;;6.50;87.20;;;;;;5040658;28;20029;-62
2022/01/31 07:01:48;;;;;;;21.52;5.18;;;6.50;87.20;;;;;;5053047;28;20041;-62
2022/01/31 07:04:14;;;;;;;26.02;6.40;;;6.40;87.20;;;;;;5043377;28;20472;-62
2022/01/31 07:06:39;;;;;;;24.83;5.05;;;6.40;87.30;;;;;;5040480;28;20025;-62
2022/01/31 07:09:05;;;;;;;22.20;6.30;;;6.40;87.30;;;;;;5050821;28;20029;-63
2022/01/31 07:11:35;;;;;;;20.92;4.88;;;6.30;87.40;;;;;;5037971;28;20072;-62
2022/01/31 07:14:29;;;;;;;21.65;6.32;;;6.30;87.60;;;;;;5033160;28;20033;-62
2022/01/31 07:16:52;;;;;;;13.05;5.50;;;6.30;87.60;;;;;;5036490;28;20048;-61
2022/01/31 07:19:21;;;;;;;25.23;5.72;;;6.30;87.70;;;;;;5046554;28;20035;-61
2022/01/31 07:21:49;;;;;;;21.02;5.13;;;6.20;87.70;;;;;;5038404;28;20024;-62
2022/01/31 07:24:24;;;;;;;23.08;5.13;;;6.20;87.70;;;;;;5038141;28;20032;-62
2022/01/31 07:26:50;;;;;;;;;;;6.20;87.70;;;;;;5051246;28;20029;-62
2022/01/31 07:29:19;;;;;;;24.58;5.28;;;6.30;87.60;;;;;;5047324;28;19956;-62
2022/01/31 07:31:45;;;;;;;22.58;5.00;;;6.20;87.60;;;;;;5022666;28;20145;-62
2022/01/31 07:34:14;;;;;;;18.05;5.40;;;6.30;88.40;;;;;;5043131;28;20056;-62
2022/01/31 07:36:39;;;;;;;19.17;4.15;;;6.30;88.30;;;;;;5031966;28;20033;-62
2022/01/31 07:39:05;;;;;;;22.20;5.68;;;6.30;88.20;;;;;;5038869;28;20041;-62
2022/01/31 07:41:31;;;;;;;22.50;5.57;;;6.40;88.70;;;;;;5034621;28;20378;-64
2022/01/31 07:43:57;;;;;;;22.23;5.68;;;6.30;89.20;;;;;;5046917;28;20029;-62
2022/01/31 07:46:22;;;;;;;29.35;4.95;;;6.40;89.00;;;;;;5040479;28;20025;-62
2022/01/31 07:48:49;;;;;;;22.67;5.28;;;6.40;88.80;;;;;;5032820;28;20053;-62
2022/01/31 07:51:17;;;;;;;22.92;5.60;;;6.40;88.70;;;;;;5050577;28;20083;-62
2022/01/31 07:53:42;;;;;;;21.17;4.85;;;6.40;89.50;;;;;;5047268;28;20029;-62
2022/01/31 07:56:08;;;;;;;19.13;5.60;;;6.40;89.70;;;;;;5032314;28;20108;-62
2022/01/31 07:58:35;;;;;;;23.40;5.07;;;6.50;89.30;;;;;;5042320;28;20044;-62
2022/01/31 08:01:01;;;;;;;22.02;5.88;;;6.40;88.90;;;;;;5041443;28;20508;-62
2022/01/31 08:03:27;;;;;;;22.50;5.35;;;6.50;88.80;;;;;;5038665;28;20060;-62
2022/01/31 08:05:52;;;;;;;21.67;4.90;;;6.50;88.60;;;;;;5041771;28;20056;-62
2022/01/31 08:08:18;;;;;;;23.23;5.50;;;6.40;88.60;;;;;;5042669;28;20036;-61
2022/01/31 08:10:44;;;;;;;19.42;5.35;;;6.40;88.60;;;;;;5040814;28;20124;-62
2022/01/31 08:13:09;;;;;;;20.60;5.70;;;6.40;88.60;;;;;;5044092;28;20029;-62
2022/01/31 08:15:46;;;;;;;17.65;4.80;;;6.40;88.70;;;;;;5050001;28;20036;-61
2022/01/31 08:18:12;;;;;;;24.55;4.90;;;6.30;88.50;;;;;;5050533;28;20053;-62
2022/01/31 08:20:38;;;;;;;24.38;6.03;;;6.30;88.60;;;;;;5037784;28;20033;-61
2022/01/31 08:23:04;;;;;;;33.65;8.63;;;6.40;88.60;;;;;;5043203;28;20040;-62
2022/01/31 08:25:35;;;;;;;21.55;6.03;;;6.30;88.60;;;;;;5040679;28;20033;-62
2022/01/31 08:28:06;;;;;;;27.63;5.82;;;6.40;88.80;;;;;;5034073;28;20025;-62
2022/01/31 08:30:40;;;;;;;25.70;6.05;;;6.40;88.80;;;;;;5043495;28;20024;-62
2022/01/31 08:33:14;;;;;;;20.73;4.57;;;6.40;88.90;;;;;;5046564;28;20060;-62
2022/01/31 08:35:50;;;;;;;24.98;5.88;;;6.40;88.60;;;;;;5031429;28;20090;-61
2022/01/31 08:38:17;;;;;;;20.10;6.05;;;6.40;88.70;;;;;;5044025;28;20041;-61
2022/01/31 08:40:44;;;;;;;22.77;5.55;;;6.50;88.70;;;;;;5050186;28;20059;-61
2022/01/31 08:43:09;;;;;;;18.77;4.72;;;6.50;88.70;;;;;;5033902;28;20465;-61
2022/01/31 08:45:36;;;;;;;19.02;5.15;;;6.50;88.70;;;;;;5040546;28;20025;-61
2022/01/31 08:48:05;;;;;;;20.42;4.82;;;6.60;88.60;;;;;;5031302;28;20032;-61
2022/01/31 08:50:31;;;;;;;18.92;6.05;;;6.60;88.60;;;;;;5036636;28;20029;-61
2022/01/31 08:52:57;;;;;;;22.55;5.68;;;6.60;88.40;;;;;;5060725;28;20103;-61
2022/01/31 08:55:23;;;;;;;23.92;5.38;;;6.70;88.30;;;;;;5052867;28;20040;-61
2022/01/31 08:57:52;;;;;;;19.55;5.82;;;6.70;88.40;;;;;;5050251;28;20029;-61
2022/01/31 09:00:19;;;;;;;17.13;4.63;;;6.70;88.40;;;;;;5039919;28;20094;-61
2022/01/31 09:02:59;;;;;;;23.40;5.50;;;6.80;88.20;;;;;;5042991;28;20468;-62
2022/01/31 09:05:25;;;;;;;20.00;5.32;;;6.80;88.20;;;;;;5036038;28;20025;-61
2022/01/31 09:07:50;;;;;;;21.83;5.30;;;6.80;88.20;;;;;;5040023;28;20037;-62
2022/01/31 09:10:18;;;;;;;19.67;4.85;;;6.80;88.20;;;;;;5041584;28;20388;-62
2022/01/31 09:12:43;;;;;;;23.65;6.38;;;6.80;88.20;;;;;;5038466;28;20033;-62
2022/01/31 09:15:12;;;;;;;19.40;5.18;;;6.90;88.00;;;;;;5042154;28;20021;-62
2022/01/31 09:17:37;;;;;;;23.35;5.75;;;6.90;88.00;;;;;;5036472;28;20091;-63
2022/01/31 09:20:03;;;;;;;23.33;4.85;;;6.90;87.90;;;;;;5039513;28;20022;-62
2022/01/31 09:22:29;;;;;;;19.42;5.53;;;6.90;87.80;;;;;;5019183;28;20047;-63
2022/01/31 09:24:54;;;;;;;22.08;5.28;;;7.00;87.60;;;;;;5043344;28;20016;-63
2022/01/31 09:27:20;;;;;;;20.75;5.82;;;6.90;87.60;;;;;;5042764;28;20032;-62
2022/01/31 09:29:45;;;;;;;17.42;5.30;;;7.00;87.60;;;;;;5054077;28;20026;-63
2022/01/31 09:32:12;;;;;;;20.55;5.13;;;7.00;87.40;;;;;;5040472;28;20029;-62
2022/01/31 09:34:38;;;;;;;20.90;4.82;;;7.10;87.60;;;;;;5045629;28;20149;-63
2022/01/31 09:37:04;;;;;;;19.08;5.65;;;7.10;87.50;;;;;;5048636;28;20107;-62
2022/01/31 09:39:30;;;;;;;26.20;5.78;;;7.10;87.40;;;;;;5048187;28;20383;-62
2022/01/31 09:41:57;;;;;;;26.90;6.72;;;7.10;87.30;;;;;;5051353;28;20034;-62
2022/01/31 09:45:11;;;;;;;31.58;8.38;;;7.10;87.20;;;;;;5049867;28;20033;-62
2022/01/31 09:47:24;;;;;;;25.52;7.05;;;7.10;87.30;;;;;;5033085;28;20564;-63
2022/01/31 09:49:50;;;;;;;25.77;6.38;;;7.20;87.30;;;;;;5049207;28;20044;-63
2022/01/31 09:52:16;;;;;;;23.00;5.00;;;7.20;87.20;;;;;;5043662;28;20025;-62
2022/01/31 09:54:43;;;;;;;28.15;5.93;;;7.10;87.10;;;;;;5046452;28;20361;-62
2022/01/31 09:57:09;;;;;;;23.50;5.38;;;7.20;87.10;;;;;;5044857;28;20087;-62
2022/01/31 09:59:34;;;;;;;22.77;6.18;;;7.20;87.10;;;;;;5037402;28;20033;-64
2022/01/31 10:02:09;;;;;;;24.50;6.30;;;7.20;86.90;;;;;;5043265;28;20071;-63
2022/01/31 10:04:36;;;;;;;24.02;5.65;;;7.30;86.80;;;;;;5044851;28;20113;-63
2022/01/31 10:07:03;;;;;;;20.10;5.32;;;7.30;87.00;;;;;;5040609;28;20035;-63
2022/01/31 10:09:33;;;;;;;28.20;6.88;;;7.30;87.10;;;;;;5046887;28;20112;-63
2022/01/31 10:12:07;;;;;;;23.23;5.43;;;7.30;87.00;;;;;;5040151;28;20049;-63
2022/01/31 10:17:28;;;;;;;21.65;7.53;;;7.40;86.70;;;;;;5039809;28;20742;-63
2022/01/31 10:19:57;;;;;;;20.45;6.38;;;7.40;86.70;;;;;;5043924;28;20025;-63
2022/01/31 10:22:25;;;;;;;16.98;5.72;;;7.40;86.40;;;;;;5048309;28;20025;-63
2022/01/31 10:24:53;;;;;;;23.05;5.22;;;7.40;86.20;;;;;;5044801;28;20103;-63
2022/01/31 10:27:26;;;;;;;19.48;5.07;;;7.40;86.10;;;;;;5025012;28;20349;-63
2022/01/31 10:29:54;;;;;;;19.70;5.63;;;7.50;86.10;;;;;;5044457;28;20040;-64
2022/01/31 10:32:29;;;;;;;19.52;5.80;;;7.50;86.20;;;;;;5040680;28;20036;-64
2022/01/31 10:34:59;;;;;;;16.05;4.80;;;7.50;85.90;;;;;;5035404;28;20025;-63
2022/01/31 10:37:29;;;;;;;22.63;6.55;;;7.60;85.90;;;;;;5041238;28;20033;-64
2022/01/31 10:51:11;;;;;;;23.83;5.50;;;7.60;85.30;;;;;;5042622;28;20097;-63
2022/01/31 10:53:44;;;;;;;18.58;5.05;;;7.60;85.50;;;;;;5039947;28;20017;-63
2022/01/31 10:56:10;;;;;;;26.30;5.53;;;7.60;85.30;;;;;;5019190;28;20118;-63
2022/01/31 10:58:59;;;;;;;18.95;4.78;;;7.50;85.40;;;;;;5041812;28;22532;-62
2022/01/31 11:01:26;;;;;;;25.98;5.43;;;7.60;85.50;;;;;;5021099;28;20033;-61
2022/01/31 11:03:52;;;;;;;25.13;5.75;;;7.60;85.50;;;;;;5040788;28;20041;-62
2022/01/31 11:06:19;;;;;;;19.45;4.68;;;7.60;85.60;;;;;;5036233;28;20027;-63
2022/01/31 11:08:45;;;;;;;20.25;4.97;;;7.60;85.60;;;;;;5046375;28;20083;-61
2022/01/31 11:11:11;;;;;;;27.50;7.50;;;7.70;85.60;;;;;;5048264;28;20037;-62
2022/01/31 11:13:37;;;;;;;19.83;6.03;;;7.80;85.70;;;;;;5033577;28;20037;-62
2022/01/31 11:16:06;;;;;;;19.95;5.90;;;7.80;85.40;;;;;;5040536;28;20114;-62
2022/01/31 11:18:35;;;;;;;26.80;5.47;;;7.80;85.20;;;;;;5033218;28;20497;-62
2022/01/31 11:21:04;;;;;;;23.30;5.18;;;7.80;85.20;;;;;;5040037;28;20103;-62
2022/01/31 11:23:33;;;;;;;19.48;5.35;;;7.90;85.40;;;;;;5041054;28;20764;-62
2022/01/31 11:26:00;;;;;;;20.98;5.65;;;8.00;85.20;;;;;;5038333;28;20044;-62
2022/01/31 11:28:30;;;;;;;25.83;7.00;;;8.00;85.10;;;;;;5036792;28;20049;-62
2022/01/31 11:30:55;;;;;;;21.00;5.47;;;8.00;85.40;;;;;;5021551;28;20151;-62
2022/01/31 11:33:22;;;;;;;19.67;5.78;;;8.10;86.00;;;;;;5036194;28;20116;-62
2022/01/31 11:35:48;;;;;;;22.83;6.13;;;8.10;86.60;;;;;;5042424;28;20040;-62
2022/01/31 11:38:18;;;;;;;19.40;5.30;;;8.20;86.20;;;;;;5036160;28;20428;-62
2022/01/31 11:40:46;;;;;;;18.33;5.57;;;8.30;86.00;;;;;;5037347;28;20067;-62
2022/01/31 11:43:14;;;;;;;18.95;5.05;;;8.40;85.60;;;;;;5042046;28;20044;-62
2022/01/31 11:45:41;;;;;;;18.67;6.72;;;8.40;85.00;;;;;;5041233;28;20025;-62
2022/01/31 11:48:22;;;;;;;21.92;6.32;;;8.40;84.70;;;;;;5032526;28;20029;-62
2022/01/31 11:50:52;;;;;;;17.58;5.72;;;8.40;84.80;;;;;;5041273;28;20027;-62
2022/01/31 11:53:27;;;;;;;17.48;4.93;;;8.40;84.70;;;;;;5039552;28;20378;-63
2022/01/31 11:55:53;;;;;;;19.15;5.85;;;8.40;84.50;;;;;;5015027;28;20029;-62
2022/01/31 11:58:18;;;;;;;29.73;5.78;;;8.40;84.90;;;;;;5048571;28;20040;-62
2022/01/31 12:00:47;;;;;;;21.25;5.63;;;8.50;84.90;;;;;;5058525;28;20040;-62
2022/01/31 12:03:15;;;;;;;21.98;5.13;;;8.40;84.70;;;;;;5032189;28;20044;-62
2022/01/31 12:05:43;;;;;;;14.75;6.00;;;8.50;84.30;;;;;;5031891;28;20034;-62
2022/01/31 12:08:19;;;;;;;17.27;6.32;;;8.50;84.50;;;;;;5035339;28;20372;-62
2022/01/31 12:11:01;;;;;;;18.75;6.40;;;8.50;84.10;;;;;;5037157;28;20476;-62
2022/01/31 12:13:39;;;;;;;22.13;6.65;;;8.50;83.40;;;;;;5043454;28;20445;-62
2022/01/31 12:16:24;;;;;;;20.25;6.03;;;8.50;83.30;;;;;;5044236;28;20383;-62
2022/01/31 12:24:20;;;;;;;21.83;5.63;;;8.50;83.60;;;;;;5038973;28;20381;-62
2022/01/31 12:26:52;;;;;;;18.08;5.38;;;8.60;83.30;;;;;;5037558;28;20060;-62
2022/01/31 12:29:21;;;;;;;23.88;5.97;;;8.60;83.20;;;;;;5032561;28;20542;-62
2022/01/31 12:32:08;;;;;;;17.48;5.95;;;8.60;83.50;;;;;;5040767;28;21730;-62
2022/01/31 12:34:38;;;;;;;19.77;5.47;;;8.70;83.60;;;;;;5036007;28;20543;-62
2022/01/31 12:37:25;;;;;;;25.38;5.20;;;8.70;83.90;;;;;;5034905;28;20068;-62
2022/01/31 12:40:08;;;;;;;19.30;5.90;;;8.80;84.20;;;;;;5037772;28;20511;-61
2022/01/31 12:42:57;;;;;;;18.77;6.88;;;8.80;83.40;;;;;;5025930;28;20051;-62
2022/01/31 12:45:31;;;;;;;21.92;6.10;;;8.80;83.90;;;;;;5036439;28;20029;-62
2022/01/31 12:48:06;;;;;;;23.60;6.53;;;8.80;84.00;;;;;;5036329;28;20068;-62
2022/01/31 12:50:33;;;;;;;14.95;5.05;;;8.90;83.90;;;;;;5040008;28;20777;-62
2022/01/31 12:53:04;;;;;;;22.42;5.35;;;8.90;83.30;;;;;;5034893;28;20036;-62
2022/01/31 12:55:31;;;;;;;19.67;5.93;;;8.80;83.10;;;;;;5039286;28;20509;-62
2022/01/31 12:57:56;;;;;;;20.05;6.53;;;8.80;82.70;;;;;;5031992;28;20107;-62
2022/01/31 13:00:43;;;;;;;22.73;6.20;;;8.70;81.50;;;;;;5032682;28;20492;-62
2022/01/31 13:03:10;;;;;;;20.33;5.60;;;8.60;81.80;;;;;;5042851;28;20388;-62
2022/01/31 13:05:38;;;;;;;16.52;5.47;;;8.50;82.10;;;;;;5035231;28;20636;-62
2022/01/31 13:08:25;;;;;;;21.05;6.07;;;8.60;82.40;;;;;;5047207;28;20036;-62
2022/01/31 13:10:52;;;;;;;22.73;5.97;;;8.60;82.20;;;;;;5053773;28;20035;-62
2022/01/31 13:13:35;;;;;;;21.52;5.97;;;8.60;82.70;;;;;;5039396;28;20151;-62